createdAt,value
2018-09-10T00:00:12.168Z,9.37
2018-09-10T00:02:41.088Z,10.77
2018-09-10T00:05:09.957Z,10.13
2018-09-10T00:07:38.818Z,9.67
2018-09-10T00:10:07.968Z,14.57
2018-09-10T00:12:38.332Z,16.10
2018-09-10T00:15:08.115Z,12.80
2018-09-10T00:17:37.253Z,11.47
2018-09-10T00:20:06.667Z,10.07
2018-09-10T00:22:35.608Z,12.07
2018-09-10T00:25:05.017Z,14.40
2018-09-10T00:27:34.029Z,10.97
2018-09-10T00:30:02.950Z,9.77
2018-09-10T00:32:32.116Z,11.50
2018-09-10T00:35:01.360Z,11.20
2018-09-10T00:37:30.564Z,11.30
2018-09-10T00:39:59.668Z,9.83
2018-09-10T00:42:28.700Z,11.50
2018-09-10T00:44:57.962Z,9.83
2018-09-10T00:47:27.348Z,9.37
2018-09-10T00:49:56.339Z,9.67
2018-09-10T00:52:25.224Z,13.40
2018-09-10T00:54:54.068Z,10.70
2018-09-10T00:57:22.907Z,12.80
2018-09-10T00:59:52.028Z,10.77
2018-09-10T01:02:20.983Z,10.20
2018-09-10T01:04:49.824Z,12.83
2018-09-10T01:07:18.802Z,14.03
2018-09-10T01:09:48.000Z,13.33
2018-09-10T01:12:16.867Z,13.37
2018-09-10T01:14:46.123Z,11.27
2018-09-10T01:17:15.040Z,19.60
2018-09-10T01:19:44.288Z,14.53
2018-09-10T01:22:13.548Z,12.13
2018-09-10T01:24:42.962Z,12.13
2018-09-10T01:27:12.229Z,12.00
2018-09-10T01:29:41.648Z,11.10
2018-09-10T01:32:10.888Z,13.90
2018-09-10T01:34:45.524Z,12.20
2018-09-10T01:37:14.708Z,12.90
2018-09-10T01:39:44.005Z,16.63
2018-09-10T01:42:13.135Z,14.90
2018-09-10T01:44:42.524Z,15.93
2018-09-10T01:47:11.676Z,13.40
2018-09-10T01:49:40.845Z,16.70
2018-09-10T01:52:09.785Z,13.50
2018-09-10T01:54:38.704Z,14.07
2018-09-10T01:57:07.920Z,12.70
2018-09-10T01:59:37.244Z,14.93
2018-09-10T02:02:06.636Z,21.30
2018-09-10T02:04:35.804Z,12.13
2018-09-10T02:07:04.756Z,14.47
2018-09-10T02:09:34.011Z,12.50
2018-09-10T02:12:02.936Z,19.00
2018-09-10T02:14:31.856Z,13.67
2018-09-10T02:17:00.898Z,11.90
2018-09-10T02:19:29.748Z,11.10
2018-09-10T02:21:58.649Z,13.20
2018-09-10T02:24:27.488Z,12.70
2018-09-10T02:26:56.444Z,11.80
2018-09-10T02:29:25.288Z,11.73
2018-09-10T02:31:54.165Z,12.30
2018-09-10T02:34:23.211Z,19.07
2018-09-10T02:36:52.155Z,13.67
2018-09-10T02:39:21.136Z,12.90
2018-09-10T02:41:50.216Z,13.87
2018-09-10T02:44:19.214Z,12.23
2018-09-10T02:46:48.336Z,12.47
2018-09-10T02:49:17.610Z,12.40
2018-09-10T02:51:47.392Z,11.90
2018-09-10T02:54:16.520Z,12.93
2018-09-10T02:56:45.352Z,11.17
2018-09-10T02:59:15.181Z,14.20
2018-09-10T03:01:44.332Z,15.03
2018-09-10T03:04:13.492Z,14.97
2018-09-10T03:06:42.881Z,10.47
2018-09-10T03:09:12.123Z,11.47
2018-09-10T03:11:41.453Z,11.43
2018-09-10T03:14:10.761Z,13.77
2018-09-10T03:16:39.596Z,10.93
2018-09-10T03:19:09.060Z,16.10
2018-09-10T03:21:38.228Z,12.67
2018-09-10T03:24:07.168Z,13.50
2018-09-10T03:26:36.590Z,15.37
2018-09-10T03:29:05.766Z,12.80
2018-09-10T03:31:34.702Z,13.70
2018-09-10T03:34:03.832Z,13.23
2018-09-10T03:36:32.801Z,11.67
2018-09-10T03:39:01.784Z,12.77
2018-09-10T03:41:31.060Z,12.00
2018-09-10T03:43:59.980Z,13.83
2018-09-10T03:46:28.916Z,14.70
2018-09-10T03:48:57.981Z,11.00
2018-09-10T03:51:27.254Z,14.23
2018-09-10T03:53:56.624Z,16.97
2018-09-10T03:56:25.993Z,10.50
2018-09-10T03:58:55.320Z,13.63
2018-09-10T04:01:24.234Z,13.20
2018-09-10T04:03:53.491Z,14.07
2018-09-10T04:06:22.668Z,11.90
2018-09-10T04:08:51.612Z,16.63
2018-09-10T04:11:20.613Z,19.27
2018-09-10T04:13:49.572Z,14.60
2018-09-10T04:16:18.643Z,15.20
2018-09-10T04:18:47.840Z,16.60
2018-09-10T04:21:17.159Z,13.87
2018-09-10T04:23:46.570Z,13.20
2018-09-10T04:26:16.057Z,10.87
2018-09-10T04:28:45.396Z,15.20
2018-09-10T04:31:14.628Z,15.17
2018-09-10T04:33:44.060Z,13.67
2018-09-10T04:36:13.509Z,14.53
2018-09-10T04:38:42.694Z,12.20
2018-09-10T04:41:11.629Z,11.57
2018-09-10T04:43:40.882Z,14.17
2018-09-10T04:46:10.115Z,13.80
2018-09-10T04:48:39.469Z,13.33
2018-09-10T04:51:08.525Z,15.43
2018-09-10T04:53:37.778Z,15.00
2018-09-10T04:56:06.702Z,14.07
2018-09-10T04:58:35.520Z,11.87
2018-09-10T05:01:04.644Z,13.93
2018-09-10T05:03:33.540Z,17.83
2018-09-10T05:06:02.474Z,18.03
2018-09-10T05:08:31.396Z,17.57
2018-09-10T05:11:00.301Z,17.87
2018-09-10T05:13:29.774Z,15.23
2018-09-10T05:15:58.849Z,12.13
2018-09-10T05:18:27.768Z,9.97
2018-09-10T05:20:56.591Z,12.87
2018-09-10T05:23:25.451Z,14.10
2018-09-10T05:25:54.292Z,18.57
2018-09-10T05:28:23.372Z,10.87
2018-09-10T05:30:52.657Z,13.70
2018-09-10T05:33:21.776Z,16.73
2018-09-10T05:35:50.716Z,18.47
2018-09-10T05:38:19.696Z,20.30
2018-09-10T05:40:48.884Z,13.20
2018-09-10T05:43:17.923Z,19.27
2018-09-10T05:45:47.247Z,13.30
2018-09-10T05:48:16.221Z,15.27
2018-09-10T05:50:45.380Z,15.93
2018-09-10T05:53:14.327Z,13.97
2018-09-10T05:55:43.176Z,11.10
2018-09-10T05:58:12.096Z,14.53
2018-09-10T06:00:41.321Z,14.07
2018-09-10T06:03:10.227Z,12.30
2018-09-10T06:05:39.157Z,10.23
2018-09-10T06:08:08.949Z,16.77
2018-09-10T06:10:38.028Z,11.50
2018-09-10T06:13:07.136Z,16.47
2018-09-10T06:15:36.150Z,18.67
2018-09-10T06:18:05.177Z,11.90
2018-09-10T06:20:34.165Z,10.20
2018-09-10T06:23:03.104Z,11.73
2018-09-10T06:25:32.048Z,10.17
2018-09-10T06:28:00.969Z,12.53
2018-09-10T06:30:29.862Z,14.13
2018-09-10T06:32:58.779Z,13.17
2018-09-10T06:35:27.724Z,10.63
2018-09-10T06:37:56.597Z,10.60
2018-09-10T06:40:25.538Z,11.93
2018-09-10T06:42:55.276Z,14.53
2018-09-10T06:45:24.185Z,9.80
2018-09-10T06:47:53.446Z,14.27
2018-09-10T06:50:22.264Z,11.43
2018-09-10T06:52:51.585Z,10.03
2018-09-10T06:55:20.408Z,10.57
2018-09-10T06:57:49.456Z,12.70
2018-09-10T07:00:18.399Z,11.60
2018-09-10T07:02:47.712Z,11.30
2018-09-10T07:05:16.780Z,14.47
2018-09-10T07:07:45.811Z,14.37
2018-09-10T07:10:15.457Z,7.47
2018-09-10T07:12:44.555Z,9.60
2018-09-10T07:15:14.040Z,18.27
2018-09-10T07:17:43.073Z,12.67
2018-09-10T07:20:12.060Z,8.47
2018-09-10T07:22:41.414Z,9.97
2018-09-10T07:25:10.600Z,10.77
2018-09-10T07:27:39.745Z,11.93
2018-09-10T07:30:08.712Z,9.53
2018-09-10T07:32:37.611Z,9.33
2018-09-10T07:35:06.420Z,9.07
2018-09-10T07:37:35.648Z,12.43
2018-09-10T07:40:04.581Z,11.57
2018-09-10T07:42:33.908Z,10.53
2018-09-10T07:45:02.818Z,10.40
2018-09-10T07:47:31.741Z,13.83
2018-09-10T07:50:00.953Z,11.27
2018-09-10T07:52:30.229Z,10.67
2018-09-10T07:54:59.389Z,10.53
2018-09-10T07:57:28.376Z,10.40
2018-09-10T07:59:57.468Z,9.60
2018-09-10T08:02:26.624Z,7.87
2018-09-10T08:04:55.564Z,10.07
2018-09-10T08:07:24.803Z,10.33
2018-09-10T08:09:53.825Z,12.80
2018-09-10T08:12:22.657Z,8.67
2018-09-10T08:14:51.820Z,9.53
2018-09-10T08:17:20.612Z,12.77
2018-09-10T08:19:50.053Z,9.33
2018-09-10T08:22:19.020Z,8.70
2018-09-10T08:24:47.831Z,10.20
2018-09-10T08:27:17.104Z,13.07
2018-09-10T08:29:45.943Z,8.23
2018-09-10T08:32:14.976Z,10.77
2018-09-10T08:34:43.938Z,10.30
2018-09-10T08:37:12.872Z,10.37
2018-09-10T08:39:41.797Z,12.73
2018-09-10T08:42:10.739Z,12.57
2018-09-10T08:44:40.028Z,11.67
2018-09-10T08:47:09.253Z,10.43
2018-09-10T08:49:38.283Z,10.03
2018-09-10T08:52:07.201Z,11.37
2018-09-10T08:54:36.481Z,11.57
2018-09-10T08:57:05.434Z,11.37
2018-09-10T08:59:34.400Z,9.73
2018-09-10T09:02:03.419Z,13.53
2018-09-10T09:04:32.484Z,11.47
2018-09-10T09:07:01.505Z,14.67
2018-09-10T09:09:30.337Z,11.97
2018-09-10T09:11:59.155Z,12.10
2018-09-10T09:14:28.236Z,13.97
2018-09-10T09:16:57.182Z,10.77
2018-09-10T09:19:26.148Z,13.53
2018-09-10T09:21:55.189Z,9.60
2018-09-10T09:24:24.067Z,13.43
2018-09-10T09:26:52.980Z,10.33
2018-09-10T09:29:21.931Z,11.37
2018-09-10T09:31:51.232Z,9.83
2018-09-10T09:34:20.324Z,11.30
2018-09-10T09:36:54.424Z,11.30
2018-09-10T09:39:29.060Z,11.87
2018-09-10T09:42:03.394Z,8.27
2018-09-10T09:44:37.401Z,13.00
2018-09-10T09:47:06.381Z,15.70
2018-09-10T09:49:35.797Z,12.10
2018-09-10T09:52:05.244Z,8.97
2018-09-10T09:54:34.061Z,14.87
2018-09-10T09:57:03.575Z,13.63
2018-09-10T09:59:32.421Z,9.73
2018-09-10T10:02:06.816Z,15.40
2018-09-10T10:04:35.834Z,12.20
2018-09-10T10:07:04.700Z,10.43
2018-09-10T10:09:33.620Z,11.63
2018-09-10T10:12:02.593Z,11.10
2018-09-10T10:14:31.566Z,11.50
2018-09-10T10:17:00.508Z,9.93
2018-09-10T10:19:29.423Z,13.40
2018-09-10T10:21:58.269Z,9.87
2018-09-10T10:24:27.173Z,13.73
2018-09-10T10:26:56.019Z,14.07
2018-09-10T10:29:24.977Z,11.13
2018-09-10T10:31:53.894Z,9.40
2018-09-10T10:34:22.810Z,10.60
2018-09-10T10:36:51.912Z,9.00
2018-09-10T10:39:20.852Z,13.23
2018-09-10T10:41:49.744Z,9.17
2018-09-10T10:44:19.029Z,7.63
2018-09-10T10:46:48.300Z,8.67
2018-09-10T10:49:18.129Z,9.83
2018-09-10T10:51:47.183Z,11.20
2018-09-10T10:54:16.108Z,9.57
2018-09-10T10:56:45.060Z,9.43
2018-09-10T10:59:14.040Z,9.17
2018-09-10T11:01:42.985Z,8.00
2018-09-10T11:04:12.166Z,10.53
2018-09-10T11:06:41.348Z,13.87
2018-09-10T11:09:10.260Z,8.23
2018-09-10T11:11:39.060Z,9.07
2018-09-10T11:14:08.053Z,10.43
2018-09-10T11:16:37.068Z,8.70
2018-09-10T11:19:05.876Z,12.30
2018-09-10T11:21:34.948Z,9.10
2018-09-10T11:24:03.831Z,9.27
2018-09-10T11:26:33.078Z,10.03
2018-09-10T11:29:02.297Z,14.63
2018-09-10T11:31:31.552Z,9.17
2018-09-10T11:34:00.541Z,9.60
2018-09-10T11:36:29.822Z,12.70
2018-09-10T11:38:58.760Z,8.03
2018-09-10T11:41:28.042Z,12.87
2018-09-10T11:43:56.900Z,8.80
2018-09-10T11:46:25.837Z,18.00
2018-09-10T11:48:54.648Z,12.00
2018-09-10T11:51:23.600Z,9.70
2018-09-10T11:53:52.535Z,11.47
2018-09-10T11:56:21.441Z,10.70
2018-09-10T11:58:50.973Z,10.63
2018-09-10T12:01:19.966Z,8.80
2018-09-10T12:03:48.913Z,7.73
2018-09-10T12:06:17.735Z,8.50
2018-09-10T12:08:46.693Z,9.27
2018-09-10T12:11:15.615Z,9.30
2018-09-10T12:13:44.893Z,8.57
2018-09-10T12:16:14.068Z,12.33
2018-09-10T12:18:42.942Z,11.13
2018-09-10T12:21:11.775Z,8.03
2018-09-10T12:23:40.775Z,7.70
2018-09-10T12:26:09.911Z,7.97
2018-09-10T12:28:39.028Z,8.73
2018-09-10T12:31:08.356Z,8.23
2018-09-10T12:33:37.604Z,11.73
2018-09-10T12:36:07.157Z,8.10
2018-09-10T12:38:36.492Z,9.57
2018-09-10T12:41:05.364Z,10.83
2018-09-10T12:43:34.427Z,10.10
2018-09-10T12:46:03.347Z,10.73
2018-09-10T12:48:32.601Z,11.17
2018-09-10T12:51:01.535Z,8.70
2018-09-10T12:53:30.684Z,7.27
2018-09-10T12:55:59.540Z,9.53
2018-09-10T12:58:28.648Z,10.13
2018-09-10T13:00:57.615Z,10.43
2018-09-10T13:03:26.565Z,10.00
2018-09-10T13:05:55.504Z,9.97
2018-09-10T13:08:24.407Z,8.70
2018-09-10T13:10:53.208Z,12.93
2018-09-10T13:13:22.497Z,10.93
2018-09-10T13:15:51.407Z,10.13
2018-09-10T13:18:20.308Z,14.90
2018-09-10T13:20:49.480Z,9.13
2018-09-10T13:23:18.849Z,8.27
2018-09-10T13:25:48.081Z,14.67
2018-09-10T13:28:17.224Z,7.30
2018-09-10T13:30:46.177Z,12.07
2018-09-10T13:33:15.111Z,10.97
2018-09-10T13:35:44.117Z,8.30
2018-09-10T13:38:13.236Z,10.30
2018-09-10T13:40:42.149Z,10.10
2018-09-10T13:43:11.136Z,14.17
2018-09-10T13:45:40.895Z,11.13
2018-09-10T13:48:10.080Z,9.43
2018-09-10T13:50:39.137Z,10.17
2018-09-10T13:53:08.054Z,7.07
2018-09-10T13:55:36.973Z,10.70
2018-09-10T13:58:05.928Z,9.87
2018-09-10T14:00:34.803Z,9.10
2018-09-10T14:03:03.605Z,10.93
2018-09-10T14:05:32.569Z,8.37
2018-09-10T14:08:01.945Z,10.77
2018-09-10T14:10:30.794Z,7.97
2018-09-10T14:13:00.228Z,9.23
2018-09-10T14:15:29.366Z,13.53
2018-09-10T14:17:58.238Z,9.87
2018-09-10T14:20:27.211Z,8.10
2018-09-10T14:22:56.533Z,10.90
2018-09-10T14:25:25.440Z,12.97
2018-09-10T14:27:54.332Z,8.20
2018-09-10T14:30:23.432Z,8.43
2018-09-10T14:32:52.408Z,13.50
2018-09-10T14:35:21.548Z,11.33
2018-09-10T14:37:50.756Z,12.57
2018-09-10T14:40:20.072Z,8.10
2018-09-10T14:42:49.744Z,10.17
2018-09-10T14:45:18.588Z,8.80
2018-09-10T14:47:47.877Z,11.33
2018-09-10T14:50:17.307Z,9.60
2018-09-10T14:52:46.941Z,10.40
2018-09-10T14:55:16.083Z,12.10
2018-09-10T14:57:45.509Z,9.83
2018-09-10T15:00:19.888Z,7.90
2018-09-10T15:02:49.207Z,12.13
2018-09-10T15:05:18.501Z,11.73
2018-09-10T15:07:47.726Z,10.73
2018-09-10T15:10:16.796Z,8.67
2018-09-10T15:12:45.722Z,9.00
2018-09-10T15:15:15.144Z,9.40
2018-09-10T15:17:44.396Z,9.97
2018-09-10T15:20:13.813Z,16.10
2018-09-10T15:22:42.880Z,10.67
2018-09-10T15:25:11.918Z,7.53
2018-09-10T15:27:41.108Z,9.47
2018-09-10T15:30:10.361Z,9.27
2018-09-10T15:32:39.780Z,9.20
2018-09-10T15:35:08.993Z,9.67
2018-09-10T15:37:38.147Z,9.10
2018-09-10T15:40:07.344Z,7.40
2018-09-10T15:42:36.677Z,8.70
2018-09-10T15:45:05.656Z,8.47
2018-09-10T15:47:34.561Z,13.00
2018-09-10T15:50:03.538Z,12.40
2018-09-10T15:52:32.733Z,11.03
2018-09-10T15:55:02.308Z,18.43
2018-09-10T15:57:31.217Z,15.27
2018-09-10T16:00:00.360Z,19.47
2018-09-10T16:02:29.528Z,15.83
2018-09-10T16:04:58.493Z,18.27
2018-09-10T16:07:27.417Z,25.93
2018-09-10T16:09:56.277Z,32.97
2018-09-10T16:12:25.493Z,19.60
2018-09-10T16:14:54.308Z,20.60
2018-09-10T16:17:23.300Z,12.87
2018-09-10T16:19:52.152Z,17.17
2018-09-10T16:22:21.243Z,15.17
2018-09-10T16:24:50.429Z,15.83
2018-09-10T16:27:19.381Z,11.73
2018-09-10T16:29:48.273Z,12.23
2018-09-10T16:32:17.144Z,11.70
2018-09-10T16:34:46.180Z,13.53
2018-09-10T16:37:15.226Z,17.57
2018-09-10T16:39:44.159Z,10.90
2018-09-10T16:42:13.007Z,8.27
2018-09-10T16:44:41.924Z,9.07
2018-09-10T16:47:10.872Z,6.53
2018-09-10T16:49:40.068Z,7.20
2018-09-10T16:52:09.013Z,5.77
2018-09-10T16:54:38.154Z,13.00
2018-09-10T16:57:07.180Z,13.30
2018-09-10T16:59:36.628Z,8.77
2018-09-10T17:02:05.594Z,7.70
2018-09-10T17:04:34.565Z,9.23
2018-09-10T17:07:03.460Z,10.77
2018-09-10T17:09:32.757Z,10.17
2018-09-10T17:12:01.895Z,6.67
2018-09-10T17:14:31.157Z,13.50
2018-09-10T17:17:00.225Z,5.90
2018-09-10T17:19:29.083Z,5.70
2018-09-10T17:21:57.928Z,7.30
2018-09-10T17:24:26.925Z,8.57
2018-09-10T17:26:55.900Z,6.80
2018-09-10T17:29:25.098Z,6.33
2018-09-10T17:31:54.065Z,7.37
2018-09-10T17:34:22.944Z,7.13
2018-09-10T17:36:52.192Z,12.53
2018-09-10T17:39:21.568Z,6.67
2018-09-10T17:41:50.584Z,6.87
2018-09-10T17:44:19.952Z,8.00
2018-09-10T17:46:48.973Z,5.50
2018-09-10T17:49:17.847Z,4.93
2018-09-10T17:51:47.297Z,7.03
2018-09-10T17:54:16.225Z,5.30
2018-09-10T17:56:45.336Z,5.67
2018-09-10T17:59:14.680Z,11.63
2018-09-10T18:01:43.775Z,17.23
2018-09-10T18:04:13.260Z,3.90
2018-09-10T18:06:42.608Z,7.17
2018-09-10T18:09:12.600Z,8.33
2018-09-10T18:11:43.192Z,4.93
2018-09-10T18:14:12.559Z,8.77
2018-09-10T18:16:41.426Z,10.07
2018-09-10T18:19:10.751Z,16.33
2018-09-10T18:21:39.616Z,15.27
2018-09-10T18:24:08.924Z,8.97
2018-09-10T18:26:38.149Z,7.07
2018-09-10T18:29:07.556Z,4.37
2018-09-10T18:31:36.659Z,7.30
2018-09-10T18:34:05.967Z,14.10
2018-09-10T18:36:35.179Z,6.27
2018-09-10T18:39:04.576Z,5.67
2018-09-10T18:41:33.648Z,16.77
2018-09-10T18:44:02.963Z,3.70
2018-09-10T18:46:32.144Z,4.53
2018-09-10T18:49:01.475Z,5.13
2018-09-10T18:51:30.672Z,3.40
2018-09-10T18:53:59.724Z,5.37
2018-09-10T18:56:28.950Z,4.67
2018-09-10T18:58:58.348Z,6.07
2018-09-10T19:01:27.571Z,10.30
2018-09-10T19:03:56.544Z,7.17
2018-09-10T19:06:25.744Z,5.47
2018-09-10T19:08:54.957Z,6.23
2018-09-10T19:11:24.056Z,4.47
2018-09-10T19:13:53.280Z,4.83
2018-09-10T19:16:22.372Z,4.27
2018-09-10T19:18:51.379Z,4.43
2018-09-10T19:21:20.572Z,4.23
2018-09-10T19:23:49.501Z,4.40
2018-09-10T19:26:18.492Z,5.00
2018-09-10T19:28:47.782Z,3.50
2018-09-10T19:31:16.972Z,4.10
2018-09-10T19:33:46.285Z,4.87
2018-09-10T19:36:15.657Z,5.47
2018-09-10T19:38:44.918Z,5.03
2018-09-10T19:41:14.129Z,4.23
2018-09-10T19:43:43.156Z,4.47
2018-09-10T19:46:12.128Z,4.30
2018-09-10T19:48:41.088Z,4.00
2018-09-10T19:51:09.934Z,5.03
2018-09-10T19:53:38.817Z,4.33
2018-09-10T19:56:07.856Z,4.93
2018-09-10T19:58:36.842Z,7.17
2018-09-10T20:01:05.696Z,4.70
2018-09-10T20:03:34.617Z,4.50
2018-09-10T20:06:04.809Z,20.80
2018-09-10T20:08:33.758Z,5.93
2018-09-10T20:11:02.672Z,4.80
2018-09-10T20:13:31.677Z,4.87
2018-09-10T20:16:00.593Z,4.33
2018-09-10T20:18:29.620Z,4.60
2018-09-10T20:20:58.420Z,4.47
2018-09-10T20:23:27.708Z,4.73
2018-09-10T20:25:56.888Z,4.87
2018-09-10T20:28:26.522Z,4.67
2018-09-10T20:30:55.562Z,4.50
2018-09-10T20:33:25.206Z,4.60
2018-09-10T20:35:54.420Z,5.23
2018-09-10T20:38:23.525Z,5.07
2018-09-10T20:40:52.758Z,7.47
2018-09-10T20:43:21.658Z,6.03
2018-09-10T20:45:50.639Z,4.53
2018-09-10T20:48:19.795Z,5.10
2018-09-10T20:50:48.704Z,7.60
2018-09-10T20:53:17.993Z,5.97
2018-09-10T20:55:47.282Z,5.90
2018-09-10T20:58:16.325Z,6.73
2018-09-10T21:00:45.433Z,6.47
2018-09-10T21:03:14.824Z,6.67
2018-09-10T21:05:44.232Z,6.57
2018-09-10T21:08:13.549Z,5.33
2018-09-10T21:10:42.753Z,5.13
2018-09-10T21:13:12.005Z,5.43
2018-09-10T21:15:40.917Z,4.70
2018-09-10T21:18:09.783Z,7.40
2018-09-10T21:20:38.688Z,6.10
2018-09-10T21:23:07.601Z,6.40
2018-09-10T21:25:36.829Z,5.63
2018-09-10T21:28:05.887Z,5.20
2018-09-10T21:30:34.847Z,4.83
2018-09-10T21:33:04.108Z,4.93
2018-09-10T21:35:33.552Z,5.10
2018-09-10T21:38:02.697Z,7.03
2018-09-10T21:40:31.844Z,5.63
2018-09-10T21:43:00.969Z,4.93
2018-09-10T21:45:29.840Z,6.30
2018-09-10T21:47:58.959Z,5.93
2018-09-10T21:50:27.775Z,6.77
2018-09-10T21:52:56.732Z,6.40
2018-09-10T21:55:25.664Z,4.67
2018-09-10T21:57:54.570Z,7.67
2018-09-10T22:00:23.555Z,6.73
2018-09-10T22:02:53.018Z,7.80
2018-09-10T22:05:21.952Z,6.30
2018-09-10T22:07:51.221Z,7.50
2018-09-10T22:10:20.558Z,6.87
2018-09-10T22:12:49.879Z,6.57
2018-09-10T22:15:19.100Z,8.53
2018-09-10T22:17:48.368Z,7.87
2018-09-10T22:20:17.584Z,6.23
2018-09-10T22:22:46.691Z,5.97
2018-09-10T22:25:16.221Z,5.47
2018-09-10T22:27:45.279Z,9.10
2018-09-10T22:30:14.520Z,5.83
2018-09-10T22:32:43.843Z,5.80
2018-09-10T22:35:13.141Z,7.40
2018-09-10T22:37:42.272Z,6.10
2018-09-10T22:40:11.840Z,8.33
2018-09-10T22:42:41.229Z,7.67
2018-09-10T22:45:10.436Z,9.50
2018-09-10T22:47:39.327Z,8.07
2018-09-10T22:50:08.413Z,9.80
2018-09-10T22:52:37.395Z,7.13
2018-09-10T22:55:06.786Z,8.60
2018-09-10T22:57:35.820Z,8.70
2018-09-10T23:00:04.984Z,7.10
2018-09-10T23:02:34.104Z,7.53
2018-09-10T23:05:03.141Z,7.90
2018-09-10T23:07:32.084Z,7.17
2018-09-10T23:10:00.933Z,8.40
2018-09-10T23:12:29.839Z,9.53
2018-09-10T23:14:59.199Z,8.87
2018-09-10T23:17:28.126Z,10.67
2018-09-10T23:19:57.194Z,8.70
2018-09-10T23:22:26.028Z,9.20
2018-09-10T23:24:54.999Z,9.90
2018-09-10T23:27:23.851Z,9.90
2018-09-10T23:29:52.796Z,7.83
2018-09-10T23:32:21.855Z,9.97
2018-09-10T23:34:50.803Z,14.30
2018-09-10T23:37:20.288Z,10.07
2018-09-10T23:39:49.555Z,12.07
2018-09-10T23:42:19.108Z,8.13
2018-09-10T23:44:48.332Z,9.83
2018-09-10T23:47:17.464Z,8.70
2018-09-10T23:49:46.579Z,9.60
2018-09-10T23:52:15.820Z,11.40
2018-09-10T23:54:45.020Z,9.73
2018-09-10T23:57:14.434Z,8.43
2018-09-10T23:59:43.512Z,9.77
